sensor_id;sensor_type;location;lat;lon;timestamp;pressure;altitude;pressure_sealevel;temperature;humidity
53089;BME280;38968;47.696;17.540;2022-09-30T00:00:22;9932205;;;16.54;65.83691
53089;BME280;38968;47.696;17.540;2022-09-30T00:05:20;9933216;;;16.46;66.12695
53089;BME280;38968;47.696;17.540;2022-09-30T00:10:20;9932952;;;16.46;66.26563
53089;BME280;38968;47.696;17.540;2022-09-30T00:15:20;9933234;;;16.43;66.45898
53089;BME280;38968;47.696;17.540;2022-09-30T00:20:20;9932720;;;16.4;66.84863
53089;BME280;38968;47.696;17.540;2022-09-30T00:25:20;9932603;;;16.28;67.07324
53089;BME280;38968;47.696;17.540;2022-09-30T00:30:20;9931820;;;16.44;67.37598
53089;BME280;38968;47.696;17.540;2022-09-30T00:35:20;9932044;;;16.51;67.27246
53089;BME280;38968;47.696;17.540;2022-09-30T00:40:21;9932012;;;16.58;66.65527
53089;BME280;38968;47.696;17.540;2022-09-30T00:45:20;9931570;;;16.58;67.51465
53089;BME280;38968;47.696;17.540;2022-09-30T00:50:36;9932737;;;16.37;67.59668
53089;BME280;38968;47.696;17.540;2022-09-30T01:00:20;9932706;;;16.43;68.55664
53089;BME280;38968;47.696;17.540;2022-09-30T01:05:21;9932595;;;16.29;69.11523
53089;BME280;38968;47.696;17.540;2022-09-30T01:10:20;9933255;;;16.21;69.67969
53089;BME280;38968;47.696;17.540;2022-09-30T01:15:22;9932612;;;16.44;68.88184
53089;BME280;38968;47.696;17.540;2022-09-30T01:20:38;9932030;;;16.54;68.18066
53089;BME280;38968;47.696;17.540;2022-09-30T01:30:42;9931811;;;16.63;67.89063
53089;BME280;38968;47.696;17.540;2022-09-30T01:40:26;9933355;;;16.53;67.90039
53089;BME280;38968;47.696;17.540;2022-09-30T01:45:28;9933985;;;16.33;69.00488
53089;BME280;38968;47.696;17.540;2022-09-30T01:50:28;9935452;;;16.56;68.7627
53089;BME280;38968;47.696;17.540;2022-09-30T01:55:40;9934597;;;16.68;68.19043
53089;BME280;38968;47.696;17.540;2022-09-30T02:00:20;9934505;;;16.52;68.03711
53089;BME280;38968;47.696;17.540;2022-09-30T02:05:23;9934768;;;16.52;68.7666
53089;BME280;38968;47.696;17.540;2022-09-30T02:10:25;9935116;;;16.18;69.49023
53089;BME280;38968;47.696;17.540;2022-09-30T02:15:25;9934062;;;16.52;69.60254
53089;BME280;38968;47.696;17.540;2022-09-30T02:20:25;9935282;;;16.55;69.08496
53089;BME280;38968;47.696;17.540;2022-09-30T02:25:25;9934754;;;16.55;68.80762
53089;BME280;38968;47.696;17.540;2022-09-30T02:30:20;9934248;;;16.33;69.93066
53089;BME280;38968;47.696;17.540;2022-09-30T02:35:24;9935697;;;16.24;70.62305
53089;BME280;38968;47.696;17.540;2022-09-30T02:40:28;9934714;;;16.45;70.40234
53089;BME280;38968;47.696;17.540;2022-09-30T02:45:21;9933784;;;16.55;69.43457
53089;BME280;38968;47.696;17.540;2022-09-30T02:50:46;9934133;;;16.39;70.33301
53089;BME280;38968;47.696;17.540;2022-09-30T03:00:20;9933775;;;16.4;69.97656
53089;BME280;38968;47.696;17.540;2022-09-30T03:05:20;9934145;;;16.18;71.19141
53089;BME280;38968;47.696;17.540;2022-09-30T03:10:20;9933907;;;16.14;70.91797
53089;BME280;38968;47.696;17.540;2022-09-30T03:20:30;9932938;;;16.32;70.46191
53089;BME280;38968;47.696;17.540;2022-09-30T03:25:31;9932853;;;16.48;70.61426
53089;BME280;38968;47.696;17.540;2022-09-30T03:30:22;9933077;;;16.21;71.06836
53089;BME280;38968;47.696;17.540;2022-09-30T03:35:27;9932209;;;16.37;70.89746
53089;BME280;38968;47.696;17.540;2022-09-30T03:45:29;9932759;;;16.32;70.73926
53089;BME280;38968;47.696;17.540;2022-09-30T03:50:22;9932316;;;16.15;71.89258
53089;BME280;38968;47.696;17.540;2022-09-30T03:55:21;9932564;;;16.36;71.27734
53089;BME280;38968;47.696;17.540;2022-09-30T04:00:20;9931548;;;16.45;70.85352
53089;BME280;38968;47.696;17.540;2022-09-30T04:05:20;9933192;;;16.16;71.07129
53089;BME280;38968;47.696;17.540;2022-09-30T04:10:20;9933264;;;16.19;71.44727
53089;BME280;38968;47.696;17.540;2022-09-30T04:15:20;9934320;;;16.37;71.14063
53089;BME280;38968;47.696;17.540;2022-09-30T04:20:20;9933086;;;16.37;70.70215
53089;BME280;38968;47.696;17.540;2022-09-30T04:25:20;9932075;;;16.28;71.05664
53089;BME280;38968;47.696;17.540;2022-09-30T04:30:20;9932952;;;16.28;71.24316
53089;BME280;38968;47.696;17.540;2022-09-30T04:35:20;9932836;;;16.34;71.08008
53089;BME280;38968;47.696;17.540;2022-09-30T04:40:20;9934155;;;16.34;71.18359
53089;BME280;38968;47.696;17.540;2022-09-30T04:45:20;9933874;;;16.02;71.87109
53089;BME280;38968;47.696;17.540;2022-09-30T04:50:20;9935211;;;16.34;71.53125
53089;BME280;38968;47.696;17.540;2022-09-30T04:55:20;9935251;;;16.44;70.88574
53089;BME280;38968;47.696;17.540;2022-09-30T05:00:20;9935792;;;16.41;71.2168
53089;BME280;38968;47.696;17.540;2022-09-30T05:05:20;9936140;;;16.24;71.37305
53089;BME280;38968;47.696;17.540;2022-09-30T05:10:20;9937545;;;16.42;71.3457
53089;BME280;38968;47.696;17.540;2022-09-30T05:15:20;9938770;;;16.08;72.06641
53089;BME280;38968;47.696;17.540;2022-09-30T05:20:21;9940344;;;16.1;72.50879
53089;BME280;38968;47.696;17.540;2022-09-30T05:25:20;9941248;;;16.4;72.34961
53089;BME280;38968;47.696;17.540;2022-09-30T05:30:20;9941670;;;16.62;71.63184
53089;BME280;38968;47.696;17.540;2022-09-30T05:35:20;9942352;;;16.66;70.89746
53089;BME280;38968;47.696;17.540;2022-09-30T05:40:20;9942962;;;16.85;70.65039
53089;BME280;38968;47.696;17.540;2022-09-30T05:45:20;9944198;;;16.85;70.33594
53089;BME280;38968;47.696;17.540;2022-09-30T05:50:21;9945269;;;16.81;70.10059
53089;BME280;38968;47.696;17.540;2022-09-30T05:55:20;9944897;;;16.86;70.53613
53089;BME280;38968;47.696;17.540;2022-09-30T06:00:20;9945245;;;16.86;69.96777
53089;BME280;38968;47.696;17.540;2022-09-30T06:05:20;9946666;;;16.83;70.23047
53089;BME280;38968;47.696;17.540;2022-09-30T06:10:20;9947134;;;16.78;70.94043
53089;BME280;38968;47.696;17.540;2022-09-30T06:15:20;9948132;;;16.72;70.86133
53089;BME280;38968;47.696;17.540;2022-09-30T06:20:20;9947708;;;16.87;70.57129
53089;BME280;38968;47.696;17.540;2022-09-30T06:25:20;9948414;;;16.86;71.05762
53089;BME280;38968;47.696;17.540;2022-09-30T06:30:21;9949804;;;17.07;70.40723
53089;BME280;38968;47.696;17.540;2022-09-30T06:35:20;9948724;;;17.12;69.83496
53089;BME280;38968;47.696;17.540;2022-09-30T06:40:20;9949681;;;16.97;70.12402
53089;BME280;38968;47.696;17.540;2022-09-30T06:45:20;9950116;;;16.98;70.35742
53089;BME280;38968;47.696;17.540;2022-09-30T06:50:20;9950738;;;17.14;70.29102
53089;BME280;38968;47.696;17.540;2022-09-30T06:55:20;9950752;;;17.11;70.30859
53089;BME280;38968;47.696;17.540;2022-09-30T07:00:21;9951559;;;17.25;70.08789
53089;BME280;38968;47.696;17.540;2022-09-30T07:05:20;9952042;;;17.17;70.48145
53089;BME280;38968;47.696;17.540;2022-09-30T07:10:20;9953175;;;17.36;69.53711
53089;BME280;38968;47.696;17.540;2022-09-30T07:15:20;9953688;;;17.57;69.5459
53089;BME280;38968;47.696;17.540;2022-09-30T07:20:21;9954930;;;17.72;68.76953
53089;BME280;38968;47.696;17.540;2022-09-30T07:25:20;9954745;;;17.57;69.25586
53089;BME280;38968;47.696;17.540;2022-09-30T07:30:20;9956578;;;17.6;68.67871
53089;BME280;38968;47.696;17.540;2022-09-30T07:35:20;9958277;;;17.39;68.99414
53089;BME280;38968;47.696;17.540;2022-09-30T07:40:20;9958553;;;17.18;69.78809
53089;BME280;38968;47.696;17.540;2022-09-30T07:45:20;9959991;;;17.13;69.48828
53089;BME280;38968;47.696;17.540;2022-09-30T07:50:20;9960430;;;16.95;70.19043
53089;BME280;38968;47.696;17.540;2022-09-30T07:55:20;9960741;;;16.67;71.07324
53089;BME280;38968;47.696;17.540;2022-09-30T08:00:20;9961132;;;16.39;70.78613
53089;BME280;38968;47.696;17.540;2022-09-30T08:05:20;9961993;;;16.24;70.56348
53089;BME280;38968;47.696;17.540;2022-09-30T08:10:20;9963250;;;16.19;70.39453
53089;BME280;38968;47.696;17.540;2022-09-30T08:15:20;9965403;;;15.89;71.15625
53089;BME280;38968;47.696;17.540;2022-09-30T08:20:20;9966484;;;15.83;70.78809
53089;BME280;38968;47.696;17.540;2022-09-30T08:25:21;9967260;;;15.86;70.6543
53089;BME280;38968;47.696;17.540;2022-09-30T08:30:20;9967918;;;15.76;71.5166
53089;BME280;38968;47.696;17.540;2022-09-30T08:35:20;9968888;;;15.75;70.75293
53089;BME280;38968;47.696;17.540;2022-09-30T08:40:29;9969607;;;15.72;70.81738
53089;BME280;38968;47.696;17.540;2022-09-30T08:45:40;9969566;;;15.81;70.90039
53089;BME280;38968;47.696;17.540;2022-09-30T08:55:28;9971084;;;15.96;72.68359
53089;BME280;38968;47.696;17.540;2022-09-30T09:00:21;9970412;;;15.89;72.31152
53089;BME280;38968;47.696;17.540;2022-09-30T09:10:43;9970709;;;16.41;69.39941
53089;BME280;38968;47.696;17.540;2022-09-30T09:15:27;9970705;;;16.43;69.8418
53089;BME280;38968;47.696;17.540;2022-09-30T09:20:21;9970803;;;16.4;69.4209
53089;BME280;38968;47.696;17.540;2022-09-30T09:25:25;9971682;;;16.6;68.6748
53089;BME280;38968;47.696;17.540;2022-09-30T09:30:21;9972052;;;16.76;68.83887
53089;BME280;38968;47.696;17.540;2022-09-30T09:35:35;9972705;;;16.67;68.9873
53089;BME280;38968;47.696;17.540;2022-09-30T09:45:28;9974083;;;17.85;66.18555
53089;BME280;38968;47.696;17.540;2022-09-30T09:55:22;9975123;;;17.88;64.7002
53089;BME280;38968;47.696;17.540;2022-09-30T10:00:24;9974455;;;18.16;63.85547
53089;BME280;38968;47.696;17.540;2022-09-30T10:05:24;9975155;;;18;65.92773
53089;BME280;38968;47.696;17.540;2022-09-30T10:10:21;9974783;;;18.04;64.95508
53089;BME280;38968;47.696;17.540;2022-09-30T10:15:24;9975036;;;18.4;62.61914
53089;BME280;38968;47.696;17.540;2022-09-30T10:20:33;9976958;;;18.43;62.25098
53089;BME280;38968;47.696;17.540;2022-09-30T10:25:22;9979200;;;18.54;61.625
53089;BME280;38968;47.696;17.540;2022-09-30T10:30:34;9978914;;;18.24;62.07227
53089;BME280;38968;47.696;17.540;2022-09-30T10:35:21;9980457;;;18.33;61.63086
53089;BME280;38968;47.696;17.540;2022-09-30T10:40:22;9982172;;;17.89;63.31641
53089;BME280;38968;47.696;17.540;2022-09-30T10:45:33;9982098;;;18.22;62.69922
53089;BME280;38968;47.696;17.540;2022-09-30T10:50:21;9981981;;;18.1;62.01953
53089;BME280;38968;47.696;17.540;2022-09-30T11:00:22;9985606;;;17.91;62.24805
53089;BME280;38968;47.696;17.540;2022-09-30T11:05:22;9986491;;;17.52;63.06641
53089;BME280;38968;47.696;17.540;2022-09-30T11:15:35;9989042;;;17.53;62.7998
53089;BME280;38968;47.696;17.540;2022-09-30T11:20:23;9989086;;;17.63;63.08105
53089;BME280;38968;47.696;17.540;2022-09-30T11:25:26;9989509;;;17.86;62.71777
53089;BME280;38968;47.696;17.540;2022-09-30T11:30:29;9990723;;;17.9;61.60645
53089;BME280;38968;47.696;17.540;2022-09-30T11:35:35;9992534;;;18.53;60.18848
53089;BME280;38968;47.696;17.540;2022-09-30T11:40:34;9991520;;;18.61;59.67383
53089;BME280;38968;47.696;17.540;2022-09-30T11:50:32;9990460;;;19.46;55.91504
53089;BME280;38968;47.696;17.540;2022-09-30T12:00:21;9991723;;;20.06;55.50879
53089;BME280;38968;47.696;17.540;2022-09-30T12:05:39;9990877;;;19.99;54.50488
53089;BME280;38968;47.696;17.540;2022-09-30T12:10:34;9991197;;;20.36;54.4082
53089;BME280;38968;47.696;17.540;2022-09-30T12:15:21;9994040;;;20.34;53.75977
53089;BME280;38968;47.696;17.540;2022-09-30T12:20:36;9993458;;;20.27;53.13086
53089;BME280;38968;47.696;17.540;2022-09-30T12:25:23;9994019;;;19.75;54.01855
53089;BME280;38968;47.696;17.540;2022-09-30T12:30:21;9994212;;;19.05;56.54199
53089;BME280;38968;47.696;17.540;2022-09-30T12:40:24;9996759;;;18.73;57.71582
53089;BME280;38968;47.696;17.540;2022-09-30T12:50:27;9996097;;;18.28;58.60352
53089;BME280;38968;47.696;17.540;2022-09-30T12:55:25;9998330;;;18.59;57.24316
53089;BME280;38968;47.696;17.540;2022-09-30T13:00:28;9999123;;;18.59;57.21973
53089;BME280;38968;47.696;17.540;2022-09-30T13:10:29;10000620.0;;;18.79;57.08105
53089;BME280;38968;47.696;17.540;2022-09-30T13:25:20;10001800.0;;;18.72;56.8623
53089;BME280;38968;47.696;17.540;2022-09-30T13:35:47;10001650.0;;;19.01;55.96289
53089;BME280;38968;47.696;17.540;2022-09-30T13:40:21;10001690.0;;;18.94;55.85059
53089;BME280;38968;47.696;17.540;2022-09-30T13:45:28;10002320.0;;;19.09;56.62891
53089;BME280;38968;47.696;17.540;2022-09-30T13:55:23;10001180.0;;;19.58;55.35547
53089;BME280;38968;47.696;17.540;2022-09-30T14:00:21;10001080.0;;;19.78;54.41992
53089;BME280;38968;47.696;17.540;2022-09-30T14:10:33;10001390.0;;;20.33;52.6084
53089;BME280;38968;47.696;17.540;2022-09-30T14:25:21;10000870.0;;;20.63;49.55273
53089;BME280;38968;47.696;17.540;2022-09-30T14:30:24;9999919;;;20.59;50.03027
53089;BME280;38968;47.696;17.540;2022-09-30T14:35:25;10001350.0;;;20.72;48.9043
53089;BME280;38968;47.696;17.540;2022-09-30T14:40:28;10002220.0;;;20.9;49.79492
53089;BME280;38968;47.696;17.540;2022-09-30T14:45:24;10002090.0;;;20.82;49.65527
53089;BME280;38968;47.696;17.540;2022-09-30T14:50:25;10001930.0;;;20.79;50.22852
53089;BME280;38968;47.696;17.540;2022-09-30T14:55:31;10001590.0;;;20.91;49.84277
53089;BME280;38968;47.696;17.540;2022-09-30T15:00:30;10000750.0;;;20.83;49.95117
53089;BME280;38968;47.696;17.540;2022-09-30T15:05:20;10002470.0;;;20.46;49.76855
53089;BME280;38968;47.696;17.540;2022-09-30T15:10:22;10001750.0;;;20.48;49.8418
53089;BME280;38968;47.696;17.540;2022-09-30T15:15:26;10001090.0;;;20.08;52.33301
53089;BME280;38968;47.696;17.540;2022-09-30T15:20:28;10002600.0;;;20.07;52.58984
53089;BME280;38968;47.696;17.540;2022-09-30T15:25:21;10003140.0;;;19.88;53.57715
53089;BME280;38968;47.696;17.540;2022-09-30T15:30:23;10002680.0;;;19.76;53.4209
53089;BME280;38968;47.696;17.540;2022-09-30T15:35:20;10002630.0;;;19.68;53.44531
53089;BME280;38968;47.696;17.540;2022-09-30T15:40:22;10003680.0;;;19.71;54.07129
53089;BME280;38968;47.696;17.540;2022-09-30T15:45:33;10003710.0;;;19.65;54.47363
53089;BME280;38968;47.696;17.540;2022-09-30T15:50:41;10004040.0;;;19.53;55.48926
53089;BME280;38968;47.696;17.540;2022-09-30T15:55:39;10004250.0;;;19.46;56.18457
53089;BME280;38968;47.696;17.540;2022-09-30T16:00:31;10005550.0;;;19.35;56.33496
53089;BME280;38968;47.696;17.540;2022-09-30T16:05:20;10005160.0;;;19.23;56.81055
53089;BME280;38968;47.696;17.540;2022-09-30T16:10:21;10006300.0;;;19.08;57.76172
53089;BME280;38968;47.696;17.540;2022-09-30T16:15:20;10007350.0;;;18.92;58.67578
53089;BME280;38968;47.696;17.540;2022-09-30T16:20:23;10007820.0;;;18.7;58.98535
53089;BME280;38968;47.696;17.540;2022-09-30T16:25:26;10008310.0;;;18.58;59.2041
53089;BME280;38968;47.696;17.540;2022-09-30T16:30:21;10008240.0;;;18.53;59.61719
53089;BME280;38968;47.696;17.540;2022-09-30T16:35:25;10008930.0;;;18.57;59.48145
53089;BME280;38968;47.696;17.540;2022-09-30T16:40:22;10009210.0;;;18.73;59.30469
53089;BME280;38968;47.696;17.540;2022-09-30T16:45:21;10009010.0;;;18.59;60.3252
53089;BME280;38968;47.696;17.540;2022-09-30T16:50:27;10009840.0;;;18.52;61.12012
53089;BME280;38968;47.696;17.540;2022-09-30T16:55:21;10009290.0;;;18.55;61.03125
53089;BME280;38968;47.696;17.540;2022-09-30T17:00:20;10009050.0;;;18.31;61.87305
53089;BME280;38968;47.696;17.540;2022-09-30T17:05:22;10010090.0;;;18.36;61.96094
53089;BME280;38968;47.696;17.540;2022-09-30T17:10:22;10010550.0;;;18.13;62.74512
53089;BME280;38968;47.696;17.540;2022-09-30T17:15:21;10010950.0;;;18.03;63.24219
53089;BME280;38968;47.696;17.540;2022-09-30T17:20:21;10012040.0;;;17.94;63.22949
53089;BME280;38968;47.696;17.540;2022-09-30T17:25:20;10012220.0;;;18.14;62.91992
53089;BME280;38968;47.696;17.540;2022-09-30T17:30:21;10013320.0;;;18.05;63.23438
53089;BME280;38968;47.696;17.540;2022-09-30T17:35:21;10013680.0;;;18.02;63.26563
53089;BME280;38968;47.696;17.540;2022-09-30T17:40:20;10013500.0;;;18.04;63.55957
53089;BME280;38968;47.696;17.540;2022-09-30T17:45:20;10013020.0;;;18.12;63.37305
53089;BME280;38968;47.696;17.540;2022-09-30T17:50:20;10012370.0;;;17.8;64.25879
53089;BME280;38968;47.696;17.540;2022-09-30T17:55:21;10010530.0;;;17.57;65.5498
53089;BME280;38968;47.696;17.540;2022-09-30T18:00:20;10010920.0;;;17.69;65.32227
53089;BME280;38968;47.696;17.540;2022-09-30T18:05:20;10013110.0;;;17.74;65.43457
53089;BME280;38968;47.696;17.540;2022-09-30T18:10:21;10014490.0;;;17.8;64.88672
53089;BME280;38968;47.696;17.540;2022-09-30T18:15:21;10014290.0;;;17.85;65.12695
53089;BME280;38968;47.696;17.540;2022-09-30T18:20:20;10013810.0;;;17.94;64.91797
53089;BME280;38968;47.696;17.540;2022-09-30T18:25:20;10014830.0;;;18.01;64.84668
53089;BME280;38968;47.696;17.540;2022-09-30T18:30:21;10015390.0;;;17.95;64.90723
53089;BME280;38968;47.696;17.540;2022-09-30T18:35:22;10017240.0;;;17.95;64.51172
53089;BME280;38968;47.696;17.540;2022-09-30T18:40:22;10017250.0;;;17.94;64.84766
53089;BME280;38968;47.696;17.540;2022-09-30T18:45:20;10018110.0;;;17.99;64.66992
53089;BME280;38968;47.696;17.540;2022-09-30T18:50:21;10016990.0;;;17.92;64.9502
53089;BME280;38968;47.696;17.540;2022-09-30T18:55:21;10017960.0;;;17.93;64.98633
53089;BME280;38968;47.696;17.540;2022-09-30T19:00:20;10017590.0;;;17.96;64.85059
53089;BME280;38968;47.696;17.540;2022-09-30T19:05:20;10018410.0;;;17.91;65.03027
53089;BME280;38968;47.696;17.540;2022-09-30T19:10:20;10019860.0;;;17.81;64.81641
53089;BME280;38968;47.696;17.540;2022-09-30T19:15:20;10022110.0;;;17.69;65.3584
53089;BME280;38968;47.696;17.540;2022-09-30T19:20:20;10023040.0;;;17.59;65.44824
53089;BME280;38968;47.696;17.540;2022-09-30T19:25:20;10023030.0;;;17.4;65.97754
53089;BME280;38968;47.696;17.540;2022-09-30T19:30:20;10021940.0;;;17.46;65.66113
53089;BME280;38968;47.696;17.540;2022-09-30T19:35:21;10021430.0;;;17.43;65.91211
53089;BME280;38968;47.696;17.540;2022-09-30T19:40:21;10021340.0;;;17.43;66.13281
53089;BME280;38968;47.696;17.540;2022-09-30T19:45:20;10019800.0;;;17.52;66.13574
53089;BME280;38968;47.696;17.540;2022-09-30T19:50:20;10019230.0;;;17.63;66.25586
53089;BME280;38968;47.696;17.540;2022-09-30T19:55:20;10017120.0;;;17.63;66.15137
53089;BME280;38968;47.696;17.540;2022-09-30T20:00:20;10015930.0;;;17.51;66.67871
53089;BME280;38968;47.696;17.540;2022-09-30T20:05:20;10015950.0;;;17.25;67.94141
53089;BME280;38968;47.696;17.540;2022-09-30T20:10:20;10015070.0;;;17.24;68.62402
53089;BME280;38968;47.696;17.540;2022-09-30T20:15:20;10015830.0;;;17.33;68.56934
53089;BME280;38968;47.696;17.540;2022-09-30T20:20:20;10014800.0;;;17.48;68.08105
53089;BME280;38968;47.696;17.540;2022-09-30T20:25:20;10014720.0;;;17.46;67.44922
53089;BME280;38968;47.696;17.540;2022-09-30T20:30:20;10016550.0;;;17.5;67.81738
53089;BME280;38968;47.696;17.540;2022-09-30T20:35:20;10015640.0;;;17.57;67.45703
53089;BME280;38968;47.696;17.540;2022-09-30T20:40:20;10014170.0;;;17.5;67.42285
53089;BME280;38968;47.696;17.540;2022-09-30T20:45:20;10014010.0;;;17.46;67.50879
53089;BME280;38968;47.696;17.540;2022-09-30T20:50:21;10016120.0;;;17.49;67.26855
53089;BME280;38968;47.696;17.540;2022-09-30T20:55:20;10016900.0;;;17.51;67.35254
53089;BME280;38968;47.696;17.540;2022-09-30T21:00:20;10015470.0;;;17.55;67.61523
53089;BME280;38968;47.696;17.540;2022-09-30T21:05:20;10013720.0;;;17.54;67.58887
53089;BME280;38968;47.696;17.540;2022-09-30T21:10:20;10013070.0;;;17.39;68.19531
53089;BME280;38968;47.696;17.540;2022-09-30T21:15:20;10012070.0;;;17.27;68.46582
53089;BME280;38968;47.696;17.540;2022-09-30T21:20:21;10012620.0;;;17.22;68.29688
53089;BME280;38968;47.696;17.540;2022-09-30T21:25:20;10014120.0;;;17.2;68.46777
53089;BME280;38968;47.696;17.540;2022-09-30T21:30:20;10013990.0;;;17.3;68.40137
53089;BME280;38968;47.696;17.540;2022-09-30T21:35:20;10014450.0;;;17.27;68.09473
53089;BME280;38968;47.696;17.540;2022-09-30T21:40:21;10015170.0;;;17.22;68.63184
53089;BME280;38968;47.696;17.540;2022-09-30T21:45:20;10014730.0;;;17.22;68.69141
53089;BME280;38968;47.696;17.540;2022-09-30T21:50:20;10014830.0;;;17.2;68.83789
53089;BME280;38968;47.696;17.540;2022-09-30T21:55:20;10014540.0;;;17.24;68.98438
53089;BME280;38968;47.696;17.540;2022-09-30T22:00:20;10013470.0;;;17.29;69.08496
53089;BME280;38968;47.696;17.540;2022-09-30T22:05:20;10013620.0;;;17.34;68.97754
53089;BME280;38968;47.696;17.540;2022-09-30T22:10:20;10013350.0;;;17.36;68.71191
53089;BME280;38968;47.696;17.540;2022-09-30T22:15:20;10013520.0;;;17.39;68.54199
53089;BME280;38968;47.696;17.540;2022-09-30T22:20:20;10012960.0;;;17.46;68.48438
53089;BME280;38968;47.696;17.540;2022-09-30T22:25:20;10013020.0;;;17.53;68.30957
53089;BME280;38968;47.696;17.540;2022-09-30T22:30:20;10011880.0;;;17.51;68.17773
53089;BME280;38968;47.696;17.540;2022-09-30T22:35:20;10012080.0;;;17.46;68.13477
53089;BME280;38968;47.696;17.540;2022-09-30T22:40:20;10011910.0;;;17.45;68.37695
53089;BME280;38968;47.696;17.540;2022-09-30T22:45:20;10011970.0;;;17.5;68.45508
53089;BME280;38968;47.696;17.540;2022-09-30T22:50:20;10011120.0;;;17.42;68.47754
53089;BME280;38968;47.696;17.540;2022-09-30T22:55:20;10009530.0;;;17.45;68.52832
53089;BME280;38968;47.696;17.540;2022-09-30T23:00:20;10010660.0;;;17.47;68.23047
53089;BME280;38968;47.696;17.540;2022-09-30T23:05:20;10009970.0;;;17.43;68.44434
53089;BME280;38968;47.696;17.540;2022-09-30T23:10:20;10010110.0;;;17.32;68.74121
53089;BME280;38968;47.696;17.540;2022-09-30T23:15:20;10009380.0;;;17.38;68.64453
53089;BME280;38968;47.696;17.540;2022-09-30T23:20:20;10011170.0;;;17.31;68.85547
53089;BME280;38968;47.696;17.540;2022-09-30T23:25:20;10011450.0;;;17.28;69.22168
53089;BME280;38968;47.696;17.540;2022-09-30T23:30:20;10009860.0;;;17.28;69.12891
53089;BME280;38968;47.696;17.540;2022-09-30T23:35:20;10010300.0;;;17.29;69.14355
53089;BME280;38968;47.696;17.540;2022-09-30T23:40:20;10011070.0;;;17.33;68.96387
53089;BME280;38968;47.696;17.540;2022-09-30T23:45:22;10011680.0;;;17.35;68.95508
53089;BME280;38968;47.696;17.540;2022-09-30T23:50:20;10011430.0;;;17.31;68.79785
53089;BME280;38968;47.696;17.540;2022-09-30T23:55:20;10011430.0;;;17.31;69.06445
